Time;durP1;ratioP1;P1;durP2;ratioP2;P2;SDS_P1;SDS_P2;PMS_P1;PMS_P2;Temp;Humidity;BMP_temperature;BMP_pressure;BME280_temperature;BME280_humidity;BME280_pressure;Samples;Min_cycle;Max_cycle;Signal;HPM_P1;HPM_P2
2022/09/01 00:01:20;;;;;;;7.63;2.92;;;;;;;13.75;100.00;100901.69;5075804;28;20029;-70
2022/09/01 00:03:51;;;;;;;8.18;2.88;;;;;;;13.78;100.00;100895.75;5075479;28;20050;-69
2022/09/01 00:06:27;;;;;;;5.70;2.90;;;;;;;13.81;100.00;100894.75;5075592;28;20036;-69
2022/09/01 00:08:54;;;;;;;5.70;2.80;;;;;;;13.85;100.00;100897.41;5075492;28;20021;-69
2022/09/01 00:11:21;;;;;;;6.88;2.83;;;;;;;13.86;100.00;100901.84;5073630;28;20063;-71
2022/09/01 00:13:48;;;;;;;5.43;2.95;;;;;;;13.90;100.00;100903.22;5075379;28;20038;-70
2022/09/01 00:16:15;;;;;;;8.00;2.78;;;;;;;13.91;100.00;100904.81;5057138;28;20024;-70
2022/09/01 00:18:42;;;;;;;7.82;2.92;;;;;;;13.94;100.00;100903.00;5073830;28;20031;-69
2022/09/01 00:21:09;;;;;;;5.13;2.72;;;;;;;13.94;100.00;100903.78;5057002;28;20028;-70
2022/09/01 00:23:35;;;;;;;4.70;2.72;;;;;;;13.96;100.00;100912.72;5074928;28;20028;-69
2022/09/01 00:26:00;;;;;;;3.65;2.72;;;;;;;13.93;100.00;100901.44;5073639;28;20358;-70
2022/09/01 00:28:26;;;;;;;5.85;2.80;;;;;;;13.93;100.00;100899.38;5074897;28;20086;-71
2022/09/01 00:30:52;;;;;;;3.95;2.80;;;;;;;13.93;100.00;100907.97;5074910;28;20103;-70
2022/09/01 00:33:18;;;;;;;4.05;2.60;;;;;;;13.94;100.00;100909.53;5075072;28;20029;-70
2022/09/01 00:35:43;;;;;;;4.57;2.72;;;;;;;13.94;100.00;100900.13;5074846;28;20078;-69
2022/09/01 00:38:09;;;;;;;3.45;2.30;;;;;;;13.92;100.00;100899.84;5074860;28;20035;-69
2022/09/01 00:40:34;;;;;;;2.95;2.35;;;;;;;13.92;100.00;100897.78;5074802;28;20531;-69
2022/09/01 00:42:59;;;;;;;3.00;2.55;;;;;;;13.92;100.00;100902.72;5074485;28;20122;-69
2022/09/01 00:45:25;;;;;;;4.15;2.15;;;;;;;13.92;100.00;100891.22;5074364;28;20055;-70
2022/09/01 00:47:50;;;;;;;5.50;2.70;;;;;;;13.93;100.00;100902.25;5074405;28;20027;-70
2022/09/01 00:50:18;;;;;;;8.48;2.63;;;;;;;13.89;100.00;100893.00;5074276;28;20412;-70
2022/09/01 00:52:52;;;;;;;4.50;2.35;;;;;;;13.90;100.00;100903.22;5073368;28;20485;-69
2022/09/01 00:55:27;;;;;;;6.50;2.20;;;;;;;13.91;100.00;100904.00;5073189;28;20389;-70
2022/09/01 00:57:52;;;;;;;6.05;2.25;;;;;;;13.89;100.00;100895.09;5073152;28;20048;-69
2022/09/01 01:00:22;;;;;;;5.10;2.25;;;;;;;13.86;100.00;100894.03;5074261;28;20036;-70
2022/09/01 01:02:48;;;;;;;8.57;2.70;;;;;;;13.88;100.00;100896.41;5072880;28;20111;-69
2022/09/01 01:05:15;;;;;;;3.55;2.25;;;;;;;13.89;100.00;100904.50;5073144;28;20028;-69
2022/09/01 01:07:43;;;;;;;5.10;2.42;;;;;;;13.89;100.00;100898.75;5074225;28;20111;-69
2022/09/01 01:10:11;;;;;;;3.95;2.80;;;;;;;13.91;100.00;100884.69;5072687;28;20085;-70
2022/09/01 01:12:39;;;;;;;5.45;2.40;;;;;;;13.92;100.00;100886.28;5073049;28;20214;-71
2022/09/01 01:15:06;;;;;;;5.07;2.35;;;;;;;13.91;100.00;100886.78;5072771;28;20028;-69
2022/09/01 01:17:32;;;;;;;5.93;2.22;;;;;;;13.95;100.00;100879.53;5072249;28;20037;-69
2022/09/01 01:23:04;;;;;;;4.28;2.08;;;;;;;14.00;100.00;100886.63;5070730;28;20409;-70
2022/09/01 01:25:45;;;;;;;3.92;2.40;;;;;;;14.03;100.00;100884.84;5071675;28;20039;-71
2022/09/01 01:28:25;;;;;;;4.57;2.17;;;;;;;14.04;100.00;100892.16;5070319;28;20036;-73
2022/09/01 01:31:10;;;;;;;6.88;2.25;;;;;;;14.05;100.00;100885.91;5071874;28;20046;-70
2022/09/01 01:33:41;;;;;;;6.00;2.28;;;;;;;14.08;100.00;100889.88;5071807;28;20552;-70
2022/09/01 01:36:12;;;;;;;3.08;2.40;;;;;;;14.10;100.00;100898.78;5072310;28;20024;-70
2022/09/01 01:38:41;;;;;;;3.22;2.13;;;;;;;14.10;100.00;100878.66;5072819;28;20111;-70
2022/09/01 01:41:07;;;;;;;4.07;2.53;;;;;;;14.10;100.00;100885.19;5071329;28;20045;-70
2022/09/01 01:43:32;;;;;;;5.13;2.33;;;;;;;14.14;100.00;100884.97;5069936;28;20118;-71
2022/09/01 01:46:01;;;;;;;4.28;2.05;;;;;;;14.13;100.00;100880.53;5071180;28;20049;-70
2022/09/01 01:48:28;;;;;;;4.50;2.10;;;;;;;14.16;100.00;100880.31;5071321;28;20382;-71
2022/09/01 01:50:56;;;;;;;2.92;2.33;;;;;;;14.14;100.00;100882.88;5069482;28;20036;-71
2022/09/01 01:53:22;;;;;;;5.50;2.55;;;;;;;14.15;100.00;100889.44;5071232;28;20028;-70
2022/09/01 01:55:48;;;;;;;4.20;2.17;;;;;;;14.15;100.00;100880.81;5073585;28;20127;-70
2022/09/01 01:58:20;;;;;;;3.55;2.25;;;;;;;14.14;100.00;100885.75;5072402;28;20029;-71
2022/09/01 02:00:47;;;;;;;5.93;2.05;;;;;;;14.14;100.00;100877.13;5073857;28;20116;-69
2022/09/01 02:03:19;;;;;;;5.70;2.25;;;;;;;14.16;100.00;100882.41;5073228;28;20032;-70
2022/09/01 02:05:46;;;;;;;4.72;2.45;;;;;;;14.17;100.00;100878.22;5072319;28;20031;-70
2022/09/01 02:08:14;;;;;;;3.30;2.30;;;;;;;14.17;100.00;100881.09;5073173;28;20492;-70
2022/09/01 02:10:42;;;;;;;3.28;2.10;;;;;;;14.19;100.00;100881.38;5073283;28;20028;-71
2022/09/01 02:13:14;;;;;;;4.95;2.22;;;;;;;14.19;100.00;100885.03;5072021;28;20028;-70
2022/09/01 02:15:44;;;;;;;5.72;2.50;;;;;;;14.19;100.00;100876.41;5073040;28;20416;-71
2022/09/01 02:18:23;;;;;;;3.72;2.22;;;;;;;14.19;100.00;100870.66;5055319;28;20439;-71
2022/09/01 02:20:49;;;;;;;6.53;2.65;;;;;;;14.22;100.00;100868.88;5055299;28;20082;-69
2022/09/01 02:23:18;;;;;;;6.40;2.38;;;;;;;14.23;100.00;100868.34;5055203;28;20089;-69
2022/09/01 02:25:45;;;;;;;3.72;2.22;;;;;;;14.23;100.00;100873.34;5072441;28;20082;-69
2022/09/01 02:28:15;;;;;;;5.32;2.35;;;;;;;14.23;100.00;100870.47;5071731;28;20080;-70
2022/09/01 02:30:48;;;;;;;5.47;2.00;;;;;;;14.23;100.00;100879.09;5072979;28;20074;-71
2022/09/01 02:33:17;;;;;;;3.70;2.40;;;;;;;14.22;100.00;100872.56;5073219;28;20398;-70
2022/09/01 02:35:52;;;;;;;5.78;2.03;;;;;;;14.24;100.00;100872.03;5071807;28;20453;-70
2022/09/01 02:38:19;;;;;;;3.15;2.25;;;;;;;14.24;100.00;100872.81;5071943;28;20024;-71
2022/09/01 02:40:45;;;;;;;4.45;2.25;;;;;;;14.24;100.00;100863.41;5071519;28;20028;-71
2022/09/01 02:43:12;;;;;;;3.17;1.90;;;;;;;14.23;100.00;100867.59;5071678;28;20034;-70
2022/09/01 02:45:38;;;;;;;5.03;2.20;;;;;;;14.21;100.00;100865.22;5071710;28;20475;-70
2022/09/01 02:48:08;;;;;;;5.03;2.33;;;;;;;14.23;100.00;100870.47;5073011;28;20024;-70
2022/09/01 02:50:34;;;;;;;3.35;2.00;;;;;;;14.24;100.00;100872.03;5071830;28;20078;-69
2022/09/01 02:53:00;;;;;;;5.18;2.40;;;;;;;14.23;100.00;100876.22;5072894;28;20021;-71
2022/09/01 02:55:27;;;;;;;4.68;2.33;;;;;;;14.22;100.00;100872.56;5054889;28;20028;-69
2022/09/01 02:57:55;;;;;;;3.83;2.17;;;;;;;14.22;100.00;100878.31;5054941;28;20029;-70
2022/09/01 03:00:27;;;;;;;7.50;2.40;;;;;;;14.21;100.00;100879.59;5073768;28;20185;-70
2022/09/01 03:03:02;;;;;;;4.93;2.42;;;;;;;14.21;100.00;100879.59;5076623;28;20028;-70
2022/09/01 03:05:29;;;;;;;5.25;2.40;;;;;;;14.21;100.00;100876.72;5076495;28;20037;-69
2022/09/01 03:07:58;;;;;;;4.47;1.98;;;;;;;14.19;100.00;100881.38;5076100;28;20035;-70
2022/09/01 03:10:31;;;;;;;2.70;2.20;;;;;;;14.18;100.00;100877.72;5075015;28;20033;-69
2022/09/01 03:12:59;;;;;;;2.50;1.70;;;;;;;14.10;100.00;100856.44;5075354;28;20033;-69
2022/09/01 03:15:25;;;;;;;6.50;2.60;;;;;;;14.16;100.00;100868.81;5076189;28;20397;-69
2022/09/01 03:17:51;;;;;;;3.53;2.22;;;;;;;14.16;100.00;100873.78;5076458;28;20024;-71
2022/09/01 03:20:20;;;;;;;3.85;2.05;;;;;;;14.15;100.00;100875.06;5074814;28;20458;-70
2022/09/01 03:22:46;;;;;;;7.28;2.13;;;;;;;14.12;100.00;100876.88;5074787;28;20028;-69
2022/09/01 03:25:12;;;;;;;3.38;2.17;;;;;;;14.12;100.00;100876.88;5076335;28;20050;-69
2022/09/01 03:27:37;;;;;;;2.53;1.92;;;;;;;14.11;100.00;100874.50;5075965;28;20098;-69
2022/09/01 03:30:03;;;;;;;7.50;2.08;;;;;;;14.08;100.00;100873.44;5075885;28;20059;-69
2022/09/01 03:32:29;;;;;;;3.10;2.22;;;;;;;14.07;100.00;100873.94;5076238;28;20090;-70
2022/09/01 03:34:55;;;;;;;4.78;2.47;;;;;;;14.04;100.00;100875.72;5075786;28;20450;-70
2022/09/01 03:37:22;;;;;;;5.65;2.60;;;;;;;14.03;100.00;100879.09;5076148;28;20350;-70
2022/09/01 03:39:47;;;;;;;5.13;2.28;;;;;;;14.00;100.00;100875.13;5076022;28;20032;-70
2022/09/01 03:42:24;;;;;;;5.45;2.35;;;;;;;14.06;100.00;100881.75;5075341;28;20036;-70
2022/09/01 03:44:50;;;;;;;5.32;2.58;;;;;;;14.06;100.00;100884.63;5075462;28;20120;-71
2022/09/01 03:47:16;;;;;;;6.35;2.60;;;;;;;14.05;100.00;100883.03;5074206;28;20111;-71
2022/09/01 03:49:42;;;;;;;4.88;2.45;;;;;;;14.06;100.00;100883.84;5075368;28;20020;-69
2022/09/01 03:52:10;;;;;;;3.40;2.20;;;;;;;13.98;100.00;100872.75;5074217;28;20082;-70
2022/09/01 03:54:36;;;;;;;2.22;1.88;;;;;;;14.07;100.00;100885.41;5074379;28;20039;-70
2022/09/01 03:57:04;;;;;;;3.33;1.90;;;;;;;14.01;100.00;100879.59;5074078;28;20028;-69
2022/09/01 03:59:30;;;;;;;4.57;1.98;;;;;;;14.07;100.00;100888.28;5057819;28;20054;-70
2022/09/01 04:01:56;;;;;;;5.72;2.80;;;;;;;14.08;100.00;100890.66;5075248;28;20033;-69
2022/09/01 04:04:22;;;;;;;3.95;2.45;;;;;;;14.11;100.00;100894.59;5073986;28;20113;-70
2022/09/01 04:06:48;;;;;;;5.35;2.47;;;;;;;14.13;100.00;100886.28;5057170;28;20063;-70
2022/09/01 04:09:13;;;;;;;2.67;2.15;;;;;;;14.12;100.00;100882.63;5074072;28;20039;-70
2022/09/01 04:11:39;;;;;;;6.82;2.53;;;;;;;14.16;100.00;100894.69;5074977;28;20044;-70
2022/09/01 04:14:05;;;;;;;7.28;2.22;;;;;;;14.18;100.00;100892.06;5074921;28;20036;-71
2022/09/01 04:19:24;;;;;;;5.95;2.63;;;;;;;14.19;100.00;100887.13;5075015;28;20504;-70
2022/09/01 04:21:52;;;;;;;4.18;2.30;;;;;;;14.20;100.00;100885.84;5057535;28;20033;-71
2022/09/01 04:24:18;;;;;;;7.05;2.45;;;;;;;14.17;100.00;100881.09;5073742;28;20029;-70
2022/09/01 04:26:45;;;;;;;4.88;2.78;;;;;;;14.20;100.00;100885.84;5074790;28;20032;-71
2022/09/01 04:29:11;;;;;;;3.28;2.55;;;;;;;14.21;100.00;100888.22;5074629;28;20030;-71
2022/09/01 04:31:38;;;;;;;7.40;2.47;;;;;;;14.21;100.00;100882.47;5073093;28;20028;-70
2022/09/01 04:34:12;;;;;;;3.63;2.55;;;;;;;14.27;100.00;100879.66;5073340;28;20028;-71
2022/09/01 04:36:40;;;;;;;4.55;2.50;;;;;;;14.30;100.00;100893.00;5072842;28;20447;-70
2022/09/01 04:39:08;;;;;;;6.07;2.60;;;;;;;14.32;100.00;100890.44;5074623;28;20028;-70
2022/09/01 04:41:37;;;;;;;3.92;2.42;;;;;;;14.36;100.00;100888.91;5073405;28;20032;-70
2022/09/01 04:44:05;;;;;;;4.55;2.60;;;;;;;14.40;100.00;100885.81;5073375;28;20028;-70
2022/09/01 04:46:34;;;;;;;7.13;3.35;;;;;;;14.45;100.00;100887.16;5072896;28;20056;-70
2022/09/01 04:49:09;;;;;;;4.75;2.45;;;;;;;14.51;100.00;100897.44;5073148;28;20040;-70
2022/09/01 04:51:39;;;;;;;6.65;3.17;;;;;;;14.57;100.00;100888.88;5074367;28;20031;-69
2022/09/01 04:54:13;;;;;;;4.45;2.53;;;;;;;14.62;100.00;100891.06;5073270;28;20110;-70
2022/09/01 04:56:49;;;;;;;5.72;2.88;;;;;;;14.65;100.00;100893.72;5057697;28;20033;-70
2022/09/01 04:59:16;;;;;;;8.30;2.60;;;;;;;14.75;100.00;100895.13;5056552;28;20033;-70
2022/09/01 05:01:43;;;;;;;3.58;2.22;;;;;;;14.84;100.00;100892.06;5073138;28;20064;-70
2022/09/01 05:04:21;;;;;;;6.18;2.40;;;;;;;14.93;100.00;100896.84;5089908;28;20472;-70
2022/09/01 05:06:55;;;;;;;5.53;3.00;;;;;;;15.01;100.00;100898.00;5070568;28;20033;-70
2022/09/01 05:09:24;;;;;;;5.72;2.30;;;;;;;15.10;100.00;100902.75;5069997;28;20048;-70
2022/09/01 05:12:09;;;;;;;17.35;3.95;;;;;;;15.19;100.00;100902.56;5073612;28;20041;-70
2022/09/01 05:14:41;;;;;;;6.03;3.08;;;;;;;15.24;100.00;100901.84;5067787;28;20085;-71
2022/09/01 05:17:11;;;;;;;5.40;2.90;;;;;;;15.32;100.00;100899.28;5063279;28;20044;-71
2022/09/01 05:19:41;;;;;;;7.32;2.78;;;;;;;15.41;100.00;100901.97;5057480;28;20040;-70
2022/09/01 05:22:09;;;;;;;2.90;2.13;;;;;;;15.49;100.00;100898.09;5054095;28;20029;-70
2022/09/01 05:24:36;;;;;;;7.38;2.85;;;;;;;15.59;100.00;100901.59;5052869;28;20077;-70
2022/09/01 05:27:05;;;;;;;11.30;3.00;;;;;;;15.74;100.00;100893.59;5052669;28;20108;-70
2022/09/01 05:29:33;;;;;;;5.88;3.15;;;;;;;15.85;100.00;100899.41;5052355;28;20042;-69
2022/09/01 05:32:07;;;;;;;4.78;2.35;;;;;;;15.98;100.00;100899.75;5053573;28;20067;-70
2022/09/01 05:34:36;;;;;;;4.90;2.30;;;;;;;16.08;100.00;100894.53;5053640;28;20063;-70
2022/09/01 05:37:02;;;;;;;8.00;2.53;;;;;;;16.26;99.50;100899.06;5053843;28;20354;-71
2022/09/01 05:39:28;;;;;;;6.40;2.30;;;;;;;16.37;98.32;100905.69;5052454;28;20516;-70
2022/09/01 05:41:54;;;;;;;7.43;3.85;;;;;;;16.49;97.84;100907.31;5053507;28;20040;-71
2022/09/01 05:44:24;;;;;;;6.18;3.05;;;;;;;16.61;97.43;100904.47;5052193;28;20021;-70
2022/09/01 05:46:52;;;;;;;9.23;3.05;;;;;;;16.73;95.63;100912.63;5053457;28;20043;-70
2022/09/01 05:49:19;;;;;;;5.28;2.53;;;;;;;16.81;94.31;100913.69;5053497;28;20025;-72
2022/09/01 05:51:53;;;;;;;3.55;2.38;;;;;;;16.97;93.86;100912.94;5052190;28;20048;-70
2022/09/01 05:54:21;;;;;;;4.40;2.42;;;;;;;17.12;92.43;100924.25;5053451;28;20060;-70
2022/09/01 05:56:48;;;;;;;4.50;2.38;;;;;;;17.21;90.55;100920.31;5052193;28;20040;-71
2022/09/01 05:59:14;;;;;;;5.78;2.10;;;;;;;17.32;89.77;100920.31;5035526;28;20029;-70
2022/09/01 06:01:40;;;;;;;4.05;2.47;;;;;;;17.33;88.91;100924.78;5052214;28;20021;-71
2022/09/01 06:04:08;;;;;;;5.38;2.17;;;;;;;17.35;88.45;100928.72;5068707;28;20385;-71
2022/09/01 06:06:45;;;;;;;6.93;2.58;;;;;;;17.41;87.38;100920.84;5055757;28;20466;-72
2022/09/01 06:09:16;;;;;;;4.38;2.40;;;;;;;17.45;86.20;100923.47;5066998;28;20024;-73
2022/09/01 06:11:45;;;;;;;4.63;2.67;;;;;;;17.41;85.36;100917.94;5066295;28;20119;-81
2022/09/01 06:14:16;;;;;;;4.20;1.73;;;;;;;17.52;84.75;100934.53;5069836;28;20021;-75
2022/09/01 06:16:46;;;;;;;4.25;2.10;;;;;;;17.68;84.32;100927.16;5070883;28;20029;-75
2022/09/01 06:19:15;;;;;;;3.03;1.70;;;;;;;17.89;84.21;100925.50;5067015;28;20099;-76
2022/09/01 06:21:41;;;;;;;4.88;2.33;;;;;;;17.97;81.89;100928.66;5051549;28;20028;-78
2022/09/01 06:24:07;;;;;;;5.22;2.55;;;;;;;18.26;82.02;100925.94;5073064;28;20031;-74
2022/09/01 06:26:35;;;;;;;4.20;2.08;;;;;;;18.55;79.92;100936.09;5071734;28;20024;-74
2022/09/01 06:29:08;;;;;;;3.13;1.75;;;;;;;19.21;76.32;100930.47;5055416;28;20040;-75
2022/09/01 06:31:37;;;;;;;12.82;3.00;;;;;;;20.06;72.46;100929.94;5071880;28;20031;-77
2022/09/01 06:34:04;;;;;;;6.85;1.98;;;;;;;21.47;67.21;100927.47;5055325;28;20032;-79
2022/09/01 06:36:31;;;;;;;3.80;2.22;;;;;;;22.32;59.19;100939.94;5040711;28;20028;-73
2022/09/01 06:39:00;;;;;;;22.73;3.70;;;;;;;22.22;57.27;100942.50;5071169;28;20054;-72
2022/09/01 06:41:26;;;;;;;8.55;2.00;;;;;;;21.84;57.79;100941.88;5076200;28;20028;-72
2022/09/01 06:43:52;;;;;;;3.47;2.08;;;;;;;21.43;59.01;100950.25;5075340;28;20047;-73
2022/09/01 06:46:22;;;;;;;8.52;2.15;;;;;;;22.19;57.58;100952.34;5072105;28;20048;-76
2022/09/01 06:48:48;;;;;;;3.53;1.90;;;;;;;22.15;55.43;100959.81;5075279;28;20519;-76
2022/09/01 06:51:19;;;;;;;12.10;2.58;;;;;;;21.80;55.77;100955.97;5074935;28;20033;-74
2022/09/01 06:53:49;;;;;;;3.50;1.92;;;;;;;21.54;57.11;100950.88;5071596;28;20061;-76
2022/09/01 06:56:17;;;;;;;19.88;4.00;;;;;;;21.62;58.69;100948.09;5075264;28;20108;-76
2022/09/01 06:58:47;;;;;;;15.45;3.22;;;;;;;21.57;58.53;100948.97;5077414;28;20021;-77
2022/09/01 07:01:17;;;;;;;33.67;5.28;;;;;;;21.66;58.09;100943.53;5059121;28;20036;-75
2022/09/01 07:03:46;;;;;;;18.23;3.80;;;;;;;22.10;56.03;100938.22;5076791;28;20107;-78
2022/09/01 07:06:17;;;;;;;24.85;3.55;;;;;;;22.70;54.20;100955.78;5074877;28;20024;-72
2022/09/01 07:08:48;;;;;;;12.45;3.03;;;;;;;22.96;52.09;100960.03;5072597;28;20111;-77
2022/09/01 07:11:26;;;;;;;12.27;3.17;;;;;;;23.07;52.51;100953.94;5058503;28;20124;-83
2022/09/01 07:14:01;;;;;;;8.45;2.08;;;;;;;22.42;52.79;100959.28;5073265;28;20032;-81
2022/09/01 07:16:29;;;;;;;15.30;3.72;;;;;;;22.20;55.32;100959.75;5073947;28;20028;-75
2022/09/01 07:18:59;;;;;;;5.80;2.97;;;;;;;22.07;56.28;100960.50;5073627;28;20052;-75
2022/09/01 07:21:28;;;;;;;2.75;2.15;;;;;;;22.05;55.00;100959.47;5056936;28;20094;-76
2022/09/01 07:24:00;;;;;;;4.90;2.05;;;;;;;21.93;54.99;100958.09;5072936;28;20032;-74
2022/09/01 07:26:29;;;;;;;5.60;2.10;;;;;;;21.84;55.81;100962.25;5073444;28;20052;-75
2022/09/01 07:28:56;;;;;;;5.78;1.90;;;;;;;21.75;55.60;100959.75;5074384;28;20031;-75
2022/09/01 07:31:25;;;;;;;7.55;1.58;;;;;;;21.60;56.41;100968.22;5052297;28;20028;-76
2022/09/01 07:34:00;;;;;;;13.00;2.35;;;;;;;21.93;56.68;100964.72;5056375;28;20047;-77
2022/09/01 07:36:25;;;;;;;11.23;2.60;;;;;;;22.41;56.26;100968.59;5055176;28;20027;-77
2022/09/01 07:38:58;;;;;;;4.90;1.85;;;;;;;22.79;54.06;100972.03;5054426;28;20394;-77
2022/09/01 07:41:33;;;;;;;2.22;1.60;;;;;;;22.83;52.43;100967.41;5075856;28;20390;-78
2022/09/01 07:44:03;;;;;;;5.57;1.90;;;;;;;22.88;53.67;100969.47;5076361;28;20024;-76
2022/09/01 07:46:31;;;;;;;8.07;1.98;;;;;;;23.19;53.45;100972.75;5073603;28;20593;-73
2022/09/01 07:48:58;;;;;;;3.55;1.63;;;;;;;24.35;51.26;100974.00;5074945;28;20468;-77
2022/09/01 07:51:29;;;;;;;5.47;1.80;;;;;;;27.02;44.30;100991.41;5075992;28;20020;-79
2022/09/01 07:53:55;;;;;;;5.40;1.65;;;;;;;29.64;38.07;101004.88;5073890;28;20070;-74
2022/09/01 07:56:31;;;;;;;2.75;1.38;;;;;;;31.46;32.91;101003.66;5073983;28;20120;-82
2022/09/01 07:58:58;;;;;;;2.55;1.38;;;;;;;32.71;30.08;100993.47;5057152;28;20029;-77
2022/09/01 08:01:28;;;;;;;3.53;1.20;;;;;;;33.44;27.63;101002.94;5073943;28;20397;-78
2022/09/01 08:03:57;;;;;;;1.20;1.02;;;;;;;33.85;27.29;101017.47;5074056;28;20077;-79
2022/09/01 08:06:25;;;;;;;2.53;1.13;;;;;;;34.01;25.82;100999.94;5057737;28;20032;-79
2022/09/01 08:08:54;;;;;;;2.75;0.80;;;;;;;34.71;26.44;101004.41;5057875;28;20161;-77
2022/09/01 08:11:25;;;;;;;2.28;1.20;;;;;;;35.39;26.03;101007.03;5060036;28;20600;-79
2022/09/01 08:13:53;;;;;;;2.50;1.10;;;;;;;35.27;23.89;101009.28;5041414;28;20112;-78
2022/09/01 08:16:29;;;;;;;3.72;0.98;;;;;;;34.97;23.79;101011.19;5073777;28;20025;-74
2022/09/01 08:18:55;;;;;;;1.48;0.77;;;;;;;34.13;24.22;101003.69;5057303;28;20377;-81
2022/09/01 08:21:23;;;;;;;1.67;1.00;;;;;;;34.33;25.11;100996.84;5057288;28;20033;-78
2022/09/01 08:23:52;;;;;;;2.40;1.10;;;;;;;34.52;24.07;101015.78;5057130;28;20058;-81
2022/09/01 08:26:20;;;;;;;2.30;0.90;;;;;;;33.87;24.38;101002.75;5056938;28;20054;-72
2022/09/01 08:28:46;;;;;;;3.20;1.02;;;;;;;33.85;24.83;101008.59;5057026;28;20055;-76
2022/09/01 08:31:24;;;;;;;2.67;1.30;;;;;;;33.36;24.83;101004.59;5056631;28;20407;-78
2022/09/01 08:33:51;;;;;;;2.30;0.77;;;;;;;32.76;25.87;101007.13;5057299;28;20033;-78
2022/09/01 08:36:17;;;;;;;1.88;0.82;;;;;;;30.67;27.64;101005.72;5075543;28;20135;-78
2022/09/01 08:38:43;;;;;;;3.67;0.80;;;;;;;30.24;28.68;101004.50;5073604;28;20138;-86
2022/09/01 08:41:22;;;;;;;4.10;1.00;;;;;;;30.35;27.51;101010.63;5072918;28;20499;-75
2022/09/01 08:44:08;;;;;;;2.05;0.82;;;;;;;29.53;29.07;101010.50;5074196;28;20063;-75
2022/09/01 08:46:38;;;;;;;6.32;2.15;;;;;;;29.55;30.32;101008.53;5072371;28;20053;-73
2022/09/01 08:49:45;;;;;;;1.77;0.80;;;;;;;29.08;29.45;101006.81;5056237;28;20489;-74
2022/09/01 08:52:29;;;;;;;0.93;0.65;;;;;;;28.63;31.14;101001.44;5074753;28;20024;-78
2022/09/01 08:55:31;;;;;;;11.30;1.27;;;;;;;28.66;30.75;100998.06;5074192;28;20123;-78
2022/09/01 08:57:56;;;;;;;2.38;0.93;;;;;;;29.18;31.29;101001.75;5066371;28;20052;-81
2022/09/01 09:00:26;;;;;;;7.93;1.38;;;;;;;29.70;29.71;100996.53;5054150;28;20029;-76
2022/09/01 09:03:15;;;;;;;5.80;1.60;;;;;;;29.65;29.15;101002.72;5047086;28;20043;-75
2022/09/01 09:05:59;;;;;;;10.82;2.30;;;;;;;28.75;29.99;101003.25;5072064;28;20035;-81
2022/09/01 09:09:01;;;;;;;0.88;0.68;;;;;;;28.01;31.48;101007.09;5074705;28;20085;-73
2022/09/01 09:11:52;;;;;;;2.63;1.15;;;;;;;27.72;31.91;100999.25;5073826;28;20024;-73
2022/09/01 09:14:35;;;;;;;1.17;1.00;;;;;;;27.65;32.38;100992.09;5073865;28;20380;-72
2022/09/01 09:17:03;;;;;;;1.67;0.90;;;;;;;26.70;32.78;101001.69;5070190;28;20035;-72
2022/09/01 09:19:32;;;;;;;1.52;0.90;;;;;;;26.23;33.84;101002.34;5054325;28;20496;-72
2022/09/01 09:22:01;;;;;;;3.03;0.95;;;;;;;25.39;35.47;100995.56;5072415;28;20017;-72
2022/09/01 09:24:54;;;;;;;6.10;0.85;;;;;;;24.90;37.23;100989.16;5072492;28;20070;-72
2022/09/01 09:27:25;;;;;;;1.17;0.85;;;;;;;25.03;37.01;100977.34;5071329;28;20031;-72
2022/09/01 09:29:53;;;;;;;2.35;0.90;;;;;;;25.29;36.91;100967.44;5072048;28;20024;-73
2022/09/01 09:32:21;;;;;;;3.70;1.05;;;;;;;25.43;35.82;100978.41;5073550;28;20025;-71
2022/09/01 09:34:46;;;;;;;11.68;2.10;;;;;;;25.34;35.27;100978.97;5073524;28;20414;-71
2022/09/01 09:37:28;;;;;;;2.90;1.30;;;;;;;24.46;36.33;100985.38;5072335;28;20028;-72
2022/09/01 09:40:09;;;;;;;5.32;1.33;;;;;;;23.69;38.74;100975.25;5055504;28;20024;-72
2022/09/01 09:42:38;;;;;;;10.85;2.17;;;;;;;23.22;40.57;100966.53;5073771;28;20438;-73
2022/09/01 09:45:06;;;;;;;1.98;1.05;;;;;;;23.15;41.44;100954.81;5073344;28;20048;-73
2022/09/01 09:47:58;;;;;;;8.40;2.42;;;;;;;23.55;41.85;100961.28;5072076;28;20099;-74
2022/09/01 09:50:45;;;;;;;6.90;1.90;;;;;;;24.19;39.62;100959.31;5072532;28;20039;-71
2022/09/01 09:53:31;;;;;;;14.80;2.92;;;;;;;24.60;37.96;100954.69;5073644;28;20042;-72
2022/09/01 09:56:16;;;;;;;4.75;1.20;;;;;;;24.52;37.35;100962.63;5073574;28;20043;-72
2022/09/01 09:58:45;;;;;;;172.75;25.02;;;;;;;24.44;38.58;100953.84;5072334;28;20054;-71
2022/09/01 10:01:28;;;;;;;5.13;1.55;;;;;;;24.80;38.23;100956.72;5038881;28;20123;-79
2022/09/01 10:03:58;;;;;;;6.93;1.20;;;;;;;25.02;37.60;100946.53;5055428;28;20013;-81
2022/09/01 10:06:33;;;;;;;3.03;0.70;;;;;;;25.12;36.23;100958.44;5038924;28;20028;-81
2022/09/01 10:09:29;;;;;;;2.97;0.70;;;;;;;24.82;36.39;100948.16;5055961;28;20111;-84
2022/09/01 10:11:58;;;;;;;8.95;1.20;;;;;;;24.25;36.97;100955.47;5066644;28;20498;-81
2022/09/01 10:14:40;;;;;;;2.75;0.95;;;;;;;23.86;38.74;100960.19;5073318;28;20032;-78
2022/09/01 10:17:15;;;;;;;3.42;1.00;;;;;;;23.57;39.85;100955.66;5075773;28;20025;-81
2022/09/01 10:20:06;;;;;;;2.35;0.85;;;;;;;23.18;39.64;100944.91;5072119;28;20508;-77
2022/09/01 10:22:34;;;;;;;5.68;1.25;;;;;;;23.07;39.93;100940.13;5073402;28;20043;-78
2022/09/01 10:25:03;;;;;;;9.52;2.13;;;;;;;23.08;39.94;100947.53;5070122;28;20037;-79
2022/09/01 10:27:35;;;;;;;17.13;5.00;;;;;;;23.19;40.47;100929.00;5055906;28;20044;-80
2022/09/01 10:30:15;;;;;;;17.95;2.38;;;;;;;23.22;39.43;100948.25;5055873;28;20055;-77
2022/09/01 10:32:48;;;;;;;2.92;0.80;;;;;;;22.94;38.88;100954.75;5072309;28;20070;-78
2022/09/01 10:35:39;;;;;;;7.28;0.95;;;;;;;22.64;40.16;100945.59;5073556;28;20115;-78
2022/09/01 10:38:19;;;;;;;5.55;1.52;;;;;;;22.51;40.32;100946.41;5055420;28;20457;-77
2022/09/01 10:41:05;;;;;;;4.47;0.85;;;;;;;22.66;41.03;100945.84;5055911;28;20047;-80
2022/09/01 10:43:47;;;;;;;30.40;4.10;;;;;;;23.01;40.26;100938.72;5072937;28;20037;-79
2022/09/01 10:46:18;;;;;;;6.97;1.33;;;;;;;23.18;38.63;100954.44;5072032;28;20048;-81
2022/09/01 10:48:46;;;;;;;3.33;0.80;;;;;;;23.45;39.54;100952.22;5073861;28;20055;-83
2022/09/01 10:51:16;;;;;;;10.05;1.23;;;;;;;23.79;39.34;100961.72;5072961;28;20028;-76
2022/09/01 10:53:46;;;;;;;5.43;0.82;;;;;;;23.78;38.13;100960.13;5073531;28;20618;-73
2022/09/01 10:56:22;;;;;;;6.38;0.70;;;;;;;23.65;38.35;100959.44;5054879;28;20051;-71
2022/09/01 10:58:58;;;;;;;2.55;0.63;;;;;;;23.35;37.96;100962.81;5072666;28;20071;-73
2022/09/01 11:01:51;;;;;;;2.60;0.88;;;;;;;22.79;38.05;100964.06;5072831;28;20117;-72
2022/09/01 11:04:22;;;;;;;5.05;1.00;;;;;;;22.53;39.64;100959.06;5062842;28;20089;-71
2022/09/01 11:06:57;;;;;;;1.17;0.57;;;;;;;22.44;40.18;100947.88;5072524;28;20024;-71
2022/09/01 11:09:28;;;;;;;1.83;0.80;;;;;;;22.47;39.01;100957.63;5072311;28;20071;-73
2022/09/01 11:12:28;;;;;;;1.20;0.88;;;;;;;22.30;38.50;100948.44;5072441;28;20032;-72
2022/09/01 11:15:04;;;;;;;2.58;0.65;;;;;;;22.14;38.77;100947.38;5072897;28;20108;-78
2022/09/01 11:17:32;;;;;;;3.42;0.70;;;;;;;22.02;39.04;100943.94;5068575;28;20032;-74
2022/09/01 11:20:18;;;;;;;2.20;0.68;;;;;;;21.84;38.22;100950.59;5054478;28;20067;-76
2022/09/01 11:23:20;;;;;;;7.68;1.00;;;;;;;21.61;38.47;100949.44;5074043;28;20033;-75
2022/09/01 11:25:48;;;;;;;2.95;0.90;;;;;;;21.41;38.83;100956.63;5073355;28;20036;-75
2022/09/01 11:28:14;;;;;;;1.58;0.70;;;;;;;21.28;38.65;100950.75;5074932;28;20043;-74
2022/09/01 11:30:51;;;;;;;0.63;0.63;;;;;;;21.14;39.17;100952.81;5074718;28;20032;-72
2022/09/01 11:33:46;;;;;;;1.23;0.60;;;;;;;21.21;39.21;100945.56;5076144;28;20024;-72
2022/09/01 11:36:18;;;;;;;2.88;0.60;;;;;;;21.35;39.72;100950.09;5075617;28;20031;-71
2022/09/01 11:39:04;;;;;;;1.30;0.60;;;;;;;21.45;39.09;100935.97;5074459;28;20058;-71
2022/09/01 11:42:00;;;;;;;30.80;3.40;;;;;;;21.40;38.36;100948.44;5037762;28;20043;-72
2022/09/01 11:44:33;;;;;;;1.08;0.77;;;;;;;21.25;37.60;100957.66;5055840;28;20038;-71